Capitol Logistics 325




KBWI
Baltimore/Washington International Airport
Baltimore, Maryland
KCVG
Cincinnati/Northern Kentucky International Airport
Covington, Kentucky

Activity Log

Date Flight Route Aircraft Duration
11/21/2021 CPX325 TERPZ7 OTTTO APE CINCE9 B744 1h 46m
08/06/2021 CPX2156 TERPZ7 OTTTO COLNS GAVNN5 A30F 1h 35m
04/18/2021 CPX2156 TERPZ7 OTTTO COLNS GAVNN5 B763 1h 17m
04/03/2021 CPX2156 TERPZ7 OTTTO COLNS GAVNN5 B752 1h 35m

Route Details

Aircraft Information
Group: Equipment Varies
Types: A30F,A31F,B738,B744,B752,B762,B763,MD11
Route Data
Demand: V
Distance: 373nm
Duration: 1h 14m
Recm'd Route: TERPZ7 OTTTO COLNS GAVNN6
Origin Wx: KBWI 270458Z 14003KT 6SM BR BKN004 OVC016 20/19 A3003 RMK AO2 T02000189
Dest. Wx: KCVG 270452Z 25008KT 10SM SCT011 BKN017 OVC022 18/17 A2982 RMK AO2 RAB17E28 SLP090 P0005 T01830172 402390178 $
Notes:

Financial History
Total Freight: 306,753lbs
Average Load: 76,688lbs/flt
Fuel Used: 76,215lbs
Avg. Fuel Used: 19,054lbs/flt
Fuel Expense: $38,671
Avg. Fuel Expense: $9,668
Avg. Fuel Cost: $0.55/lbs
Total Gross Income: $662,512
Pilot Pay: $786
Total Expenses: $87,283
Total Revenue: $535,395
Average Revenue: $165,627.91